Terminal Aerodrome Forecast
Issued by NWS Mt. Holly, NJ

Home | Current Version | Previous Version | Text Only | Print | Product List | Glossary On
Versions: 1 2 3 4 5 6 7 8 9 10 11 12 13 14
933
FTUS41 KPHI 230529
TAFABE
TAF
KABE 230529Z 2306/2406 VRB03KT P6SM SCT200
     FM230800 VRB03KT 4SM BR SCT200
     FM231000 VRB03KT 1SM BR OVC010
     FM231500 23004KT 2SM BR BKN010
     FM231700 23006KT P6SM BKN025
     FM231900 22006KT P6SM BKN040
     FM232300 VRB03KT P6SM BKN040
     FM240500 VRB03KT 4SM BR BKN015=

USA.gov is the U.S. government's official web portal to all federal, state and local government web resources and services.